createdAt,value
2019-03-09T00:02:00.733Z,954.4
2019-03-09T00:05:06.803Z,954.4
2019-03-09T00:08:12.874Z,954.3
2019-03-09T00:11:18.940Z,954.3
2019-03-09T00:14:24.961Z,954.3
2019-03-09T00:17:31.377Z,954.2
2019-03-09T00:20:37.384Z,954.2
2019-03-09T00:23:43.350Z,954.2
2019-03-09T00:26:49.513Z,954.3
2019-03-09T00:29:56.040Z,954.2
2019-03-09T00:33:02.668Z,954.2
2019-03-09T00:36:08.553Z,954.1
2019-03-09T00:39:14.516Z,954.2
2019-03-09T00:42:20.645Z,954.1
2019-03-09T00:45:28.030Z,954.3
2019-03-09T00:48:34.097Z,954.2
2019-03-09T00:51:42.599Z,954.2
2019-03-09T00:54:48.582Z,954.1
2019-03-09T00:57:55.659Z,954.1
2019-03-09T01:01:01.682Z,954.1
2019-03-09T01:04:07.683Z,954.2
2019-03-09T01:07:13.569Z,954.1
2019-03-09T01:10:19.499Z,954.1
2019-03-09T01:13:25.460Z,954.1
2019-03-09T01:16:31.521Z,954.1
2019-03-09T01:19:37.403Z,954.1
2019-03-09T01:22:43.543Z,954.1
2019-03-09T01:25:49.469Z,954.1
2019-03-09T01:28:55.462Z,954.1
2019-03-09T01:32:04.261Z,954.1
2019-03-09T01:35:10.356Z,954.1
2019-03-09T01:38:16.306Z,954.2
2019-03-09T01:41:22.190Z,954.3
2019-03-09T01:44:28.233Z,954.3
2019-03-09T01:47:34.339Z,954.2
2019-03-09T01:50:40.252Z,954.1
2019-03-09T01:53:46.133Z,954.2
2019-03-09T01:56:52.063Z,954.3
2019-03-09T01:59:58.024Z,954.2
2019-03-09T02:03:04.085Z,954.3
2019-03-09T02:06:10.044Z,954.3
2019-03-09T02:09:15.927Z,954.3
2019-03-09T02:12:21.860Z,954.3
2019-03-09T02:15:27.753Z,954.3
2019-03-09T02:18:33.779Z,954.4
2019-03-09T02:21:39.659Z,954.3
2019-03-09T02:24:45.699Z,954.5
2019-03-09T02:27:51.657Z,954.4
2019-03-09T02:30:57.620Z,954.3
2019-03-09T02:34:03.712Z,954.3
2019-03-09T02:37:09.673Z,954.3
2019-03-09T02:40:18.472Z,954.3
2019-03-09T02:43:27.295Z,954.4
2019-03-09T02:46:33.292Z,954.4
2019-03-09T02:49:39.379Z,954.4
2019-03-09T02:52:45.334Z,954.3
2019-03-09T02:55:51.342Z,954.4
2019-03-09T02:58:57.299Z,954.5
2019-03-09T03:02:03.411Z,954.5
2019-03-09T03:05:09.422Z,954.6
2019-03-09T03:08:15.388Z,954.6
2019-03-09T03:11:21.343Z,954.6
2019-03-09T03:14:27.287Z,954.6
2019-03-09T03:17:33.370Z,954.6
2019-03-09T03:20:39.353Z,954.7
2019-03-09T03:23:45.390Z,954.7
2019-03-09T03:26:51.563Z,954.8
2019-03-09T03:29:57.613Z,954.7
2019-03-09T03:33:03.674Z,954.8
2019-03-09T03:36:09.738Z,954.9
2019-03-09T03:39:18.539Z,954.9
2019-03-09T03:42:24.411Z,954.9
2019-03-09T03:45:30.325Z,954.9
2019-03-09T03:48:36.340Z,954.9
2019-03-09T03:51:42.298Z,954.9
2019-03-09T03:54:48.259Z,954.9
2019-03-09T03:57:54.264Z,954.8
2019-03-09T04:01:00.325Z,954.8
2019-03-09T04:04:06.353Z,954.9
2019-03-09T04:07:12.405Z,954.8
2019-03-09T04:10:18.466Z,954.9
2019-03-09T04:13:24.505Z,954.9
2019-03-09T04:16:30.595Z,954.9
2019-03-09T04:19:36.463Z,954.9
2019-03-09T04:22:42.660Z,955
2019-03-09T04:25:48.563Z,955
2019-03-09T04:28:54.578Z,955
2019-03-09T04:32:00.458Z,955.1
2019-03-09T04:35:06.449Z,955
2019-03-09T04:38:12.516Z,955
2019-03-09T04:41:18.385Z,955.1
2019-03-09T04:44:24.327Z,955.2
2019-03-09T04:47:32.642Z,955.1
2019-03-09T04:50:38.604Z,955.2
2019-03-09T04:53:44.679Z,955.2
2019-03-09T04:56:50.551Z,955.4
2019-03-09T04:59:56.483Z,955.3
2019-03-09T05:03:02.641Z,955.3
2019-03-09T05:06:08.680Z,955.2
2019-03-09T05:09:14.552Z,955.2
2019-03-09T05:12:20.519Z,955.3
2019-03-09T05:15:26.477Z,955.3
2019-03-09T05:18:32.516Z,955.4
2019-03-09T05:21:38.395Z,955.4
2019-03-09T05:24:44.512Z,955.5
2019-03-09T05:27:51.549Z,955.5
2019-03-09T05:30:57.425Z,955.6
2019-03-09T05:34:03.370Z,955.6
2019-03-09T05:37:09.346Z,955.7
2019-03-09T05:40:15.393Z,955.7
2019-03-09T05:43:24.528Z,955.8
2019-03-09T05:46:30.487Z,955.7
2019-03-09T05:49:36.465Z,955.7
2019-03-09T05:52:42.360Z,955.7
2019-03-09T05:55:48.256Z,955.7
2019-03-09T05:58:54.133Z,955.7
2019-03-09T06:02:00.071Z,955.9
2019-03-09T06:05:06.007Z,955.9
2019-03-09T06:08:12.039Z,955.8
2019-03-09T06:11:18.008Z,955.8
2019-03-09T06:14:23.915Z,955.9
2019-03-09T06:17:29.789Z,955.9
2019-03-09T06:20:38.185Z,955.8
2019-03-09T06:23:44.143Z,956
2019-03-09T06:26:50.155Z,955.9
2019-03-09T06:29:56.065Z,956
2019-03-09T06:33:02.058Z,956
2019-03-09T06:36:08.084Z,956
2019-03-09T06:39:14.150Z,956
2019-03-09T06:42:20.029Z,955.9
2019-03-09T06:45:25.962Z,956
2019-03-09T06:48:31.925Z,956.1
2019-03-09T06:51:37.932Z,956
2019-03-09T06:54:43.808Z,956
2019-03-09T06:57:49.807Z,956
2019-03-09T07:00:55.768Z,956.1
2019-03-09T07:04:01.701Z,956
2019-03-09T07:07:07.789Z,956
2019-03-09T07:10:13.849Z,956.1
2019-03-09T07:13:19.911Z,956.1
2019-03-09T07:16:25.867Z,956.1
2019-03-09T07:19:31.748Z,956.2
2019-03-09T07:22:37.745Z,956.1
2019-03-09T07:25:43.846Z,956.2
2019-03-09T07:28:52.063Z,956.2
2019-03-09T07:31:57.915Z,956.2
2019-03-09T07:35:03.800Z,956.2
2019-03-09T07:38:09.733Z,956.1
2019-03-09T07:41:15.693Z,956.2
2019-03-09T07:44:21.754Z,956.1
2019-03-09T07:47:27.815Z,956.1
2019-03-09T07:50:33.926Z,955.9
2019-03-09T07:53:39.950Z,956
2019-03-09T07:56:46.009Z,956.1
2019-03-09T07:59:51.885Z,956
2019-03-09T08:02:57.921Z,956.1
2019-03-09T08:06:03.884Z,956.1
2019-03-09T08:09:09.846Z,956.1
2019-03-09T08:12:15.801Z,956.1
2019-03-09T08:15:21.760Z,956
2019-03-09T08:18:27.720Z,956
2019-03-09T08:21:33.791Z,955.9
2019-03-09T08:24:39.743Z,955.9
2019-03-09T08:27:45.711Z,955.9
2019-03-09T08:30:51.766Z,955.9
2019-03-09T08:33:57.885Z,955.9
2019-03-09T08:37:03.943Z,955.9
2019-03-09T08:40:10.028Z,955.8
2019-03-09T08:43:16.116Z,955.8
2019-03-09T08:46:22.008Z,955.7
2019-03-09T08:49:28.084Z,955.7
2019-03-09T08:52:33.957Z,955.7
2019-03-09T08:55:40.079Z,955.7
2019-03-09T08:58:46.151Z,955.7
2019-03-09T09:01:52.066Z,955.6
2019-03-09T09:04:58.042Z,955.6
2019-03-09T09:08:05.327Z,955.6
2019-03-09T09:11:11.455Z,955.6
2019-03-09T09:14:17.352Z,955.6
2019-03-09T09:17:23.307Z,955.6
2019-03-09T09:20:29.474Z,955.4
2019-03-09T09:23:35.535Z,955.5
2019-03-09T09:26:41.414Z,955.5
2019-03-09T09:29:47.455Z,955.5
2019-03-09T09:32:53.413Z,955.4
2019-03-09T09:35:59.373Z,955.4
2019-03-09T09:39:05.355Z,955.4
2019-03-09T09:42:11.609Z,955.3
2019-03-09T09:45:17.663Z,955.3
2019-03-09T09:48:23.644Z,955.3
2019-03-09T09:51:29.511Z,955.3
2019-03-09T09:54:35.544Z,955.4
2019-03-09T09:57:41.504Z,955.3
2019-03-09T10:00:47.470Z,955.2
2019-03-09T10:03:53.535Z,955.1
2019-03-09T10:06:59.481Z,955.1
2019-03-09T10:10:05.453Z,955
2019-03-09T10:13:11.400Z,955
2019-03-09T10:16:17.391Z,955
2019-03-09T10:19:23.323Z,955
2019-03-09T10:22:29.281Z,954.9
2019-03-09T10:25:35.160Z,954.9
2019-03-09T10:28:41.199Z,954.8
2019-03-09T10:31:47.089Z,954.8
2019-03-09T10:34:53.123Z,954.8
2019-03-09T10:37:59.194Z,954.7
2019-03-09T10:41:05.146Z,954.7
2019-03-09T10:44:11.023Z,954.6
2019-03-09T10:47:16.957Z,954.6
2019-03-09T10:50:23.019Z,954.6
2019-03-09T10:53:31.336Z,954.5
2019-03-09T10:56:37.213Z,954.5
2019-03-09T10:59:43.205Z,954.4
2019-03-09T11:02:49.289Z,954.3
2019-03-09T11:05:58.000Z,954.2
2019-03-09T11:09:04.001Z,954.2
2019-03-09T11:12:09.959Z,954.2
2019-03-09T11:15:16.043Z,954.2
2019-03-09T11:18:21.988Z,954.1
2019-03-09T11:21:27.941Z,954
2019-03-09T11:24:34.002Z,954
2019-03-09T11:27:40.072Z,953.9
2019-03-09T11:30:46.033Z,953.9
2019-03-09T11:33:52.097Z,953.8
2019-03-09T11:36:58.100Z,953.7
2019-03-09T11:40:04.113Z,953.7
2019-03-09T11:43:10.103Z,953.5
2019-03-09T11:46:16.137Z,953.6
2019-03-09T11:49:22.011Z,953.5
2019-03-09T11:52:30.406Z,953.4
2019-03-09T11:55:36.570Z,953.4
2019-03-09T11:58:42.528Z,953.3
2019-03-09T12:01:48.488Z,953.3
2019-03-09T12:04:54.447Z,953.2
2019-03-09T12:08:00.331Z,953.2
2019-03-09T12:11:06.547Z,953.2
2019-03-09T12:14:12.581Z,953.1
2019-03-09T12:17:18.593Z,953
2019-03-09T12:20:24.655Z,953
2019-03-09T12:23:30.574Z,952.9
2019-03-09T12:26:36.577Z,952.9
2019-03-09T12:29:42.534Z,952.8
2019-03-09T12:32:48.497Z,952.9
2019-03-09T12:35:54.450Z,952.8
2019-03-09T12:39:00.444Z,952.8
2019-03-09T12:42:06.373Z,952.8
2019-03-09T12:45:12.332Z,952.8
2019-03-09T12:48:18.394Z,952.7
2019-03-09T12:51:24.283Z,952.7
2019-03-09T12:54:30.215Z,952.7
2019-03-09T12:57:36.172Z,952.6
2019-03-09T13:00:42.070Z,952.6
2019-03-09T13:03:48.092Z,952.6
2019-03-09T13:06:54.049Z,952.6
2019-03-09T13:09:59.929Z,952.6
2019-03-09T13:13:05.865Z,952.7
2019-03-09T13:16:12.119Z,952.7
2019-03-09T13:22:28.821Z,952.8
2019-03-09T13:25:34.824Z,952.7
2019-03-09T13:28:43.042Z,952.5
2019-03-09T13:31:48.945Z,952.5
2019-03-09T13:34:54.955Z,952.5
2019-03-09T13:38:01.002Z,952.5
2019-03-09T13:41:06.879Z,952.4
2019-03-09T13:44:15.808Z,952.3
2019-03-09T13:47:21.768Z,952.2
2019-03-09T13:50:27.731Z,952.2
2019-03-09T13:53:33.796Z,952.2
2019-03-09T13:56:39.854Z,952.1
2019-03-09T13:59:45.817Z,952
2019-03-09T14:02:51.688Z,952
2019-03-09T14:05:57.632Z,952
2019-03-09T14:09:03.589Z,951.9
2019-03-09T14:12:09.464Z,952
2019-03-09T14:15:15.514Z,952
2019-03-09T14:18:21.573Z,951.9
2019-03-09T14:21:27.536Z,951.9
2019-03-09T14:24:33.405Z,951.8
2019-03-09T14:27:39.350Z,951.8
2019-03-09T14:30:45.251Z,951.8
2019-03-09T14:33:51.269Z,951.7
2019-03-09T14:36:57.237Z,951.7
2019-03-09T14:40:03.186Z,951.6
2019-03-09T14:43:09.083Z,951.6
2019-03-09T14:46:14.958Z,951.6
2019-03-09T14:49:20.964Z,951.6
2019-03-09T14:52:26.864Z,951.6
2019-03-09T14:55:32.881Z,951.5
2019-03-09T14:58:38.834Z,951.5
2019-03-09T15:01:44.713Z,951.4
2019-03-09T15:04:50.857Z,951.4
2019-03-09T15:07:56.817Z,951.4
2019-03-09T15:11:02.693Z,951.4
2019-03-09T15:14:08.946Z,951.4
2019-03-09T15:17:14.899Z,951.3
2019-03-09T15:20:20.863Z,951.3
2019-03-09T15:23:27.434Z,951.4
2019-03-09T15:26:33.398Z,951.3
2019-03-09T15:29:39.362Z,951.3
2019-03-09T15:32:45.325Z,951.3
2019-03-09T15:35:51.309Z,951.2
2019-03-09T15:38:57.154Z,951.3
2019-03-09T15:42:03.138Z,951.3
2019-03-09T15:45:09.302Z,951.4
2019-03-09T15:48:15.430Z,951.3
2019-03-09T15:51:21.429Z,951.4
2019-03-09T15:54:27.460Z,951.4
2019-03-09T15:57:33.509Z,951.4
2019-03-09T16:00:39.378Z,951.4
2019-03-09T16:03:45.328Z,951.4
2019-03-09T16:06:51.196Z,951.5
2019-03-09T16:09:57.241Z,951.5
2019-03-09T16:13:03.241Z,951.5
2019-03-09T16:16:09.265Z,951.5
2019-03-09T16:19:15.137Z,951.6
2019-03-09T16:22:23.333Z,951.5
2019-03-09T16:25:30.214Z,951.6
2019-03-09T16:28:36.170Z,951.6
2019-03-09T16:31:42.135Z,951.6
2019-03-09T16:34:48.094Z,951.6
2019-03-09T16:37:54.048Z,951.6
2019-03-09T16:41:00.007Z,951.6
2019-03-09T16:44:05.885Z,951.7
2019-03-09T16:47:11.825Z,951.7
2019-03-09T16:50:17.731Z,951.8
2019-03-09T16:53:23.847Z,951.7
2019-03-09T16:56:29.723Z,951.8
2019-03-09T16:59:35.767Z,951.7
2019-03-09T17:02:41.839Z,951.8
2019-03-09T17:05:47.901Z,951.8
2019-03-09T17:08:53.961Z,951.9
2019-03-09T17:11:59.917Z,951.9
2019-03-09T17:15:08.659Z,951.9
2019-03-09T17:18:14.614Z,952
2019-03-09T17:21:20.679Z,952
2019-03-09T17:24:26.572Z,952
2019-03-09T17:27:32.580Z,952
2019-03-09T17:30:38.454Z,952
2019-03-09T17:33:44.397Z,952
2019-03-09T17:36:50.454Z,952
2019-03-09T17:39:56.333Z,952
2019-03-09T17:43:02.327Z,952
2019-03-09T17:46:08.231Z,952.2
2019-03-09T17:49:14.190Z,952.4
2019-03-09T17:52:20.146Z,952.5
2019-03-09T17:55:26.111Z,952.6
2019-03-09T17:58:32.070Z,952.8
2019-03-09T18:01:37.971Z,952.8
2019-03-09T18:04:43.891Z,952.9
2019-03-09T18:07:52.513Z,952.9
2019-03-09T18:10:58.470Z,953
2019-03-09T18:14:08.440Z,953
2019-03-09T18:17:14.482Z,952.9
2019-03-09T18:20:20.469Z,953.1
2019-03-09T18:23:26.355Z,953
2019-03-09T18:26:32.389Z,953
2019-03-09T18:29:38.422Z,953
2019-03-09T18:32:44.483Z,953
2019-03-09T18:35:50.557Z,953
2019-03-09T18:38:56.612Z,952.9
2019-03-09T18:42:02.567Z,952.8
2019-03-09T18:45:08.569Z,952.8
2019-03-09T18:48:14.599Z,952.8
2019-03-09T18:51:20.557Z,952.9
2019-03-09T18:54:26.586Z,952.9
2019-03-09T18:57:32.569Z,952.9
2019-03-09T19:00:38.450Z,952.9
2019-03-09T19:03:44.365Z,952.9
2019-03-09T19:06:50.345Z,952.9
2019-03-09T19:09:56.231Z,952.9
2019-03-09T19:13:02.295Z,953
2019-03-09T19:16:08.147Z,953
2019-03-09T19:19:14.087Z,952.9
2019-03-09T19:22:20.039Z,953.1
2019-03-09T19:25:26.008Z,953
2019-03-09T19:28:32.061Z,952.9
2019-03-09T19:31:38.020Z,953
2019-03-09T19:34:43.900Z,953
2019-03-09T19:37:49.841Z,953
2019-03-09T19:40:58.460Z,953
2019-03-09T19:44:04.341Z,953
2019-03-09T19:47:10.377Z,953
2019-03-09T19:50:16.330Z,953
2019-03-09T19:53:22.400Z,953
2019-03-09T19:56:28.359Z,953.1
2019-03-09T19:59:34.237Z,953.1
2019-03-09T20:02:40.280Z,953
2019-03-09T20:05:46.340Z,953.1
2019-03-09T20:08:52.299Z,953
2019-03-09T20:11:58.178Z,952.9
2019-03-09T20:15:04.217Z,952.9
2019-03-09T20:18:10.097Z,952.9
2019-03-09T20:21:16.140Z,952.8
2019-03-09T20:24:22.017Z,952.7
2019-03-09T20:27:28.060Z,952.8
2019-03-09T20:30:34.019Z,952.7
2019-03-09T20:33:40.082Z,952.9
2019-03-09T20:36:46.118Z,952.8
2019-03-09T20:39:52.104Z,952.9
2019-03-09T20:42:58.062Z,952.8
2019-03-09T20:46:04.024Z,952.9
2019-03-09T20:49:09.978Z,952.8
2019-03-09T20:52:16.040Z,952.7
2019-03-09T20:55:21.998Z,952.7
2019-03-09T20:58:28.062Z,952.7
2019-03-09T21:01:34.020Z,952.7
2019-03-09T21:04:40.103Z,952.6
2019-03-09T21:07:46.175Z,952.7
2019-03-09T21:10:52.103Z,952.6
2019-03-09T21:14:09.188Z,952.6
2019-03-09T21:17:18.105Z,952.6
2019-03-09T21:20:24.112Z,952.6
2019-03-09T21:23:30.071Z,952.6
2019-03-09T21:26:38.373Z,952.6
2019-03-09T21:29:44.398Z,952.5
2019-03-09T21:32:50.283Z,952.6
2019-03-09T21:35:56.264Z,952.5
2019-03-09T21:39:02.224Z,952.5
2019-03-09T21:42:08.292Z,952.5
2019-03-09T21:45:14.201Z,952.5
2019-03-09T21:48:20.165Z,952.5
2019-03-09T21:51:26.220Z,952.5
2019-03-09T21:54:32.134Z,952.5
2019-03-09T21:57:38.105Z,952.5
2019-03-09T22:00:44.050Z,952.4
2019-03-09T22:03:49.924Z,952.4
2019-03-09T22:06:56.015Z,952.4
2019-03-09T22:10:01.961Z,952.4
2019-03-09T22:13:08.090Z,952.4
2019-03-09T22:16:14.053Z,952.4
2019-03-09T22:19:20.107Z,952.4
2019-03-09T22:22:26.067Z,952.4
2019-03-09T22:25:31.947Z,952.4
2019-03-09T22:28:37.988Z,952.4
2019-03-09T22:31:43.881Z,952.3
2019-03-09T22:34:49.906Z,952.3
2019-03-09T22:37:56.173Z,952.3
2019-03-09T22:41:02.134Z,952.3
2019-03-09T22:44:08.098Z,952.3
2019-03-09T22:47:14.108Z,952.3
2019-03-09T22:50:20.116Z,952.4
2019-03-09T22:53:26.071Z,952.4
2019-03-09T22:56:32.249Z,952.4
2019-03-09T22:59:38.260Z,952.4
2019-03-09T23:02:46.357Z,952.4
2019-03-09T23:05:52.367Z,952.3
2019-03-09T23:08:58.430Z,952.4
2019-03-09T23:12:04.490Z,952.4
2019-03-09T23:15:10.451Z,952.5
2019-03-09T23:18:16.513Z,952.5
2019-03-09T23:21:22.473Z,952.5
2019-03-09T23:24:28.537Z,952.5
2019-03-09T23:27:34.501Z,952.4
2019-03-09T23:30:40.556Z,952.3
2019-03-09T23:33:46.564Z,952.4
2019-03-09T23:36:52.440Z,952.4
2019-03-09T23:39:58.487Z,952.4
2019-03-09T23:43:04.495Z,952.5
2019-03-09T23:46:10.384Z,952.4
2019-03-09T23:49:16.319Z,952.3
2019-03-09T23:52:22.273Z,952.2
2019-03-09T23:55:28.233Z,952.4
2019-03-09T23:58:34.373Z,952.4
